createdAt,value
2023-01-30T00:11:56.809Z,14.10
2023-01-30T00:14:24.729Z,14.37
2023-01-30T00:16:52.626Z,14.50
2023-01-30T00:19:20.554Z,18.97
2023-01-30T00:21:48.458Z,12.03
2023-01-30T00:24:16.466Z,13.10
2023-01-30T00:26:44.488Z,14.60
2023-01-30T00:29:13.726Z,11.37
2023-01-30T00:31:41.694Z,17.50
2023-01-30T00:34:09.639Z,16.27
2023-01-30T00:36:37.530Z,11.73
2023-01-30T00:39:05.460Z,12.80
2023-01-30T00:41:47.328Z,16.10
2023-01-30T00:44:33.925Z,15.27
2023-01-30T00:47:09.031Z,17.97
2023-01-30T00:49:37.600Z,16.13
2023-01-30T00:52:06.157Z,14.23
2023-01-30T00:54:34.050Z,12.47
2023-01-30T00:57:02.043Z,15.03
2023-01-30T01:11:34.696Z,15.83
2023-01-30T01:14:04.361Z,17.60
2023-01-30T01:16:33.516Z,12.10
2023-01-30T01:19:01.798Z,12.13
2023-01-30T01:21:30.133Z,13.33
2023-01-30T01:24:01.261Z,16.17
2023-01-30T01:26:29.348Z,12.53
2023-01-30T01:28:59.182Z,14.93
2023-01-30T01:31:27.323Z,8.60
2023-01-30T01:33:55.401Z,16.57
2023-01-30T01:36:51.579Z,9.47
2023-01-30T01:39:11.695Z,11.67
2023-01-30T01:41:38.627Z,15.07
2023-01-30T01:44:09.066Z,6.83
2023-01-30T01:46:39.806Z,16.83
2023-01-30T01:49:14.964Z,15.93
2023-01-30T01:51:50.774Z,15.57
2023-01-30T01:54:24.452Z,13.80
2023-01-30T01:56:52.889Z,13.67
2023-01-30T01:59:25.638Z,15.03
2023-01-30T02:01:56.974Z,14.37
2023-01-30T02:04:41.132Z,9.10
2023-01-30T02:07:10.565Z,17.13
2023-01-30T02:09:38.963Z,6.90
2023-01-30T02:12:07.636Z,11.87
2023-01-30T02:14:38.388Z,11.20
2023-01-30T02:17:06.484Z,14.93
2023-01-30T02:19:42.943Z,10.63
2023-01-30T02:22:45.003Z,14.13
2023-01-30T02:25:30.796Z,17.37
2023-01-30T02:28:28.856Z,14.13
2023-01-30T02:31:15.314Z,8.40
2023-01-30T02:33:53.350Z,11.53
2023-01-30T02:36:30.072Z,13.93
2023-01-30T02:39:07.711Z,14.60
2023-01-30T02:41:42.783Z,15.17
2023-01-30T02:44:18.068Z,14.27
2023-01-30T02:46:55.187Z,8.73
2023-01-30T02:49:28.644Z,13.00
2023-01-30T02:51:58.964Z,11.73
2023-01-30T02:54:26.919Z,13.70
2023-01-30T02:56:58.444Z,17.47
2023-01-30T02:59:31.181Z,13.73
2023-01-30T03:02:32.264Z,21.40
2023-01-30T03:05:20.366Z,12.60
2023-01-30T03:07:55.975Z,19.27
2023-01-30T03:10:33.155Z,18.23
2023-01-30T03:13:06.546Z,17.97
2023-01-30T03:15:38.047Z,15.67
2023-01-30T03:18:08.406Z,19.53
2023-01-30T03:20:39.391Z,10.60
2023-01-30T03:23:07.649Z,18.73
2023-01-30T03:25:39.007Z,16.57
2023-01-30T03:28:08.155Z,18.33
2023-01-30T03:30:36.101Z,15.83
2023-01-30T03:33:04.007Z,9.60
2023-01-30T03:35:33.283Z,16.43
2023-01-30T03:38:01.265Z,9.40
2023-01-30T03:40:29.846Z,16.63
2023-01-30T03:42:57.865Z,17.20
2023-01-30T03:45:25.798Z,15.70
2023-01-30T03:47:53.937Z,15.13
2023-01-30T03:50:21.854Z,14.67
2023-01-30T03:52:51.130Z,13.50
2023-01-30T03:55:19.334Z,17.00
2023-01-30T03:57:47.829Z,12.07
2023-01-30T04:00:16.875Z,17.97
2023-01-30T04:02:44.855Z,13.17
2023-01-30T04:05:12.783Z,12.50
2023-01-30T04:07:40.764Z,12.57
2023-01-30T04:10:11.459Z,7.13
2023-01-30T04:12:39.381Z,12.67
2023-01-30T04:15:08.238Z,14.53
2023-01-30T04:17:36.169Z,15.00
2023-01-30T04:20:04.281Z,16.50
2023-01-30T04:22:34.679Z,18.20
2023-01-30T04:25:03.573Z,7.33
2023-01-30T04:27:32.821Z,13.33
2023-01-30T04:30:00.798Z,12.27
2023-01-30T04:32:28.703Z,13.60
2023-01-30T04:34:56.734Z,15.27
2023-01-30T04:37:24.763Z,14.30
2023-01-30T04:39:52.641Z,16.07
2023-01-30T04:42:20.542Z,15.03
2023-01-30T04:44:50.104Z,12.80
2023-01-30T04:47:18.386Z,13.07
2023-01-30T04:49:46.313Z,14.27
2023-01-30T04:52:14.215Z,12.50
2023-01-30T04:54:42.187Z,15.73
2023-01-30T04:57:10.226Z,13.73
2023-01-30T04:59:38.152Z,14.03
2023-01-30T05:02:07.422Z,9.67
2023-01-30T05:04:35.329Z,12.23
2023-01-30T05:07:03.240Z,14.47
2023-01-30T05:09:31.159Z,13.80
2023-01-30T05:11:59.466Z,17.60
2023-01-30T05:14:27.389Z,13.13
2023-01-30T05:16:55.345Z,13.23
2023-01-30T05:19:24.852Z,13.93
2023-01-30T05:21:52.816Z,14.73
2023-01-30T05:24:20.981Z,14.50
2023-01-30T05:26:48.931Z,13.10
2023-01-30T05:29:16.845Z,14.80
2023-01-30T05:31:44.861Z,17.73
2023-01-30T05:34:13.924Z,13.43
2023-01-30T05:36:43.177Z,16.07
2023-01-30T05:39:11.095Z,12.33
2023-01-30T05:41:38.989Z,10.63
2023-01-30T05:44:07.336Z,10.03
2023-01-30T05:46:35.371Z,11.73
2023-01-30T05:49:04.189Z,12.50
2023-01-30T05:51:32.177Z,12.90
2023-01-30T05:54:01.413Z,13.10
2023-01-30T05:56:30.472Z,12.03
2023-01-30T05:58:58.421Z,14.30
2023-01-30T06:01:26.871Z,11.73
2023-01-30T06:03:55.652Z,14.73
2023-01-30T06:06:24.176Z,9.73
2023-01-30T06:08:55.112Z,12.23
2023-01-30T06:11:24.972Z,13.93
2023-01-30T06:13:53.119Z,13.57
2023-01-30T06:16:21.144Z,13.40
2023-01-30T06:18:49.258Z,11.83
2023-01-30T06:21:17.609Z,11.50
2023-01-30T06:23:46.439Z,11.30
2023-01-30T06:26:14.444Z,12.87
2023-01-30T06:28:44.284Z,12.43
2023-01-30T06:31:12.361Z,13.87
2023-01-30T06:33:40.300Z,12.07
2023-01-30T06:36:08.925Z,15.17
2023-01-30T06:38:36.994Z,14.03
2023-01-30T06:41:04.947Z,11.63
2023-01-30T06:43:32.879Z,11.70
2023-01-30T06:46:02.277Z,13.17
2023-01-30T06:48:30.663Z,16.33
2023-01-30T06:50:58.556Z,12.40
2023-01-30T06:53:30.504Z,15.27
2023-01-30T06:55:58.950Z,13.73
2023-01-30T06:58:27.174Z,13.47
2023-01-30T07:00:56.742Z,16.27
2023-01-30T07:03:26.051Z,12.43
2023-01-30T07:05:54.000Z,7.53
2023-01-30T07:08:24.009Z,14.27
2023-01-30T07:10:52.423Z,12.90
2023-01-30T07:13:20.376Z,13.63
2023-01-30T07:15:48.311Z,14.17
2023-01-30T07:18:16.433Z,12.10
2023-01-30T07:20:49.492Z,14.83
2023-01-30T07:23:17.966Z,13.37
2023-01-30T07:25:45.970Z,16.10
2023-01-30T07:28:14.053Z,12.83
2023-01-30T07:30:42.029Z,14.50
2023-01-30T07:33:10.313Z,11.07
2023-01-30T07:35:38.929Z,11.70
2023-01-30T07:38:08.171Z,17.67
2023-01-30T07:40:36.106Z,13.23
2023-01-30T07:43:05.721Z,18.10
2023-01-30T07:45:38.779Z,15.77
2023-01-30T07:48:06.871Z,17.43
2023-01-30T07:50:35.203Z,18.67
2023-01-30T07:53:04.713Z,18.40
2023-01-30T07:55:34.688Z,19.00
2023-01-30T07:58:02.738Z,20.83
2023-01-30T08:00:30.761Z,19.60
2023-01-30T08:02:58.813Z,21.07
2023-01-30T08:05:26.757Z,20.80
2023-01-30T08:07:56.742Z,16.10
2023-01-30T08:10:25.131Z,15.60
2023-01-30T08:12:54.409Z,18.10
2023-01-30T08:15:23.095Z,17.03
2023-01-30T08:17:58.253Z,15.23
2023-01-30T08:20:27.268Z,22.53
2023-01-30T08:22:55.956Z,15.23
2023-01-30T08:25:24.424Z,18.77
2023-01-30T08:27:53.994Z,18.30
2023-01-30T08:30:23.102Z,20.60
2023-01-30T08:32:51.369Z,18.40
2023-01-30T08:35:19.564Z,18.00
2023-01-30T08:37:47.499Z,18.70
2023-01-30T08:40:15.862Z,19.17
2023-01-30T08:42:45.538Z,17.03
2023-01-30T08:45:14.923Z,16.23
2023-01-30T08:47:42.936Z,19.50
2023-01-30T08:50:11.972Z,13.07
2023-01-30T08:52:40.008Z,14.40
2023-01-30T08:55:09.371Z,15.17
2023-01-30T08:57:37.742Z,15.77
2023-01-30T09:00:07.234Z,13.53
2023-01-30T09:02:36.762Z,11.43
2023-01-30T09:05:04.959Z,13.57
2023-01-30T09:07:33.377Z,11.77
2023-01-30T09:10:01.362Z,12.50
2023-01-30T09:12:29.363Z,12.53
2023-01-30T09:14:58.532Z,13.57
2023-01-30T09:17:26.546Z,10.03
2023-01-30T09:19:55.883Z,9.40
2023-01-30T09:22:23.795Z,9.90
2023-01-30T09:24:51.720Z,11.80
2023-01-30T09:27:19.619Z,12.83
2023-01-30T09:29:47.607Z,12.90
2023-01-30T09:32:15.565Z,15.97
2023-01-30T09:34:43.534Z,12.40
2023-01-30T09:37:12.875Z,11.37
2023-01-30T09:39:40.802Z,13.33
2023-01-30T09:42:26.105Z,14.07
2023-01-30T09:45:24.835Z,10.30
2023-01-30T09:48:02.422Z,10.93
2023-01-30T09:51:00.248Z,9.03
2023-01-30T09:53:35.611Z,10.27
2023-01-30T09:56:03.676Z,11.67
2023-01-30T09:58:45.752Z,17.03
2023-01-30T10:01:20.749Z,13.87
2023-01-30T10:04:03.227Z,9.27
2023-01-30T10:06:35.162Z,9.30
2023-01-30T10:09:12.396Z,11.07
2023-01-30T10:11:55.951Z,14.00
2023-01-30T10:14:43.858Z,12.77
2023-01-30T10:17:33.143Z,11.70
2023-01-30T10:20:18.267Z,12.67
2023-01-30T10:22:57.056Z,12.00
2023-01-30T10:25:32.469Z,15.00
2023-01-30T10:28:04.315Z,11.93
2023-01-30T10:30:32.938Z,14.03
2023-01-30T10:33:05.476Z,11.63
2023-01-30T10:35:36.857Z,13.47
2023-01-30T10:38:14.077Z,12.90
2023-01-30T10:40:47.626Z,10.13
2023-01-30T10:43:21.350Z,14.90
2023-01-30T10:45:57.030Z,16.57
2023-01-30T10:48:43.674Z,15.93
2023-01-30T10:51:24.098Z,13.03
2023-01-30T10:53:57.887Z,13.93
2023-01-30T10:56:36.450Z,15.80
2023-01-30T10:59:16.241Z,12.60
2023-01-30T11:01:46.223Z,16.80
2023-01-30T11:04:24.656Z,13.90
2023-01-30T11:06:54.580Z,12.50
2023-01-30T11:09:24.655Z,12.33
2023-01-30T11:11:55.783Z,14.43
2023-01-30T11:14:23.707Z,13.37
2023-01-30T11:16:54.294Z,15.07
2023-01-30T11:19:25.971Z,13.20
2023-01-30T11:21:56.043Z,16.03
2023-01-30T11:24:30.413Z,16.77
2023-01-30T11:27:11.813Z,17.10
2023-01-30T11:29:40.698Z,19.63
2023-01-30T11:32:14.261Z,18.73
2023-01-30T11:34:44.822Z,16.57
2023-01-30T11:37:24.649Z,16.33
2023-01-30T11:39:53.513Z,16.47
2023-01-30T11:42:26.897Z,12.40
2023-01-30T11:45:10.700Z,9.87
2023-01-30T11:47:57.233Z,13.80
2023-01-30T11:50:36.298Z,15.83
2023-01-30T11:53:21.675Z,15.43
2023-01-30T11:56:01.844Z,13.90
2023-01-30T11:58:36.131Z,9.60
2023-01-30T12:01:05.379Z,10.80
2023-01-30T12:03:34.610Z,11.77
2023-01-30T12:06:02.691Z,9.87
2023-01-30T12:08:43.826Z,10.17
2023-01-30T12:11:27.474Z,9.23
2023-01-30T12:14:06.229Z,9.60
2023-01-30T12:16:47.643Z,12.00
2023-01-30T12:19:27.529Z,13.80
2023-01-30T12:22:02.479Z,7.63
2023-01-30T12:24:37.273Z,10.90
2023-01-30T12:27:12.574Z,10.67
2023-01-30T12:29:53.645Z,10.87
2023-01-30T12:32:26.308Z,9.20
2023-01-30T12:34:54.330Z,9.97
2023-01-30T12:37:41.307Z,11.40
2023-01-30T12:40:19.972Z,10.13
2023-01-30T12:43:07.578Z,9.60
2023-01-30T12:45:44.228Z,10.97
2023-01-30T12:49:07.881Z,9.77
2023-01-30T12:52:02.731Z,8.77
2023-01-30T12:54:44.037Z,10.23
2023-01-30T12:57:22.916Z,9.10
2023-01-30T13:00:01.841Z,8.97
2023-01-30T13:02:50.518Z,9.00
2023-01-30T13:05:26.568Z,10.70
2023-01-30T13:08:13.089Z,6.73
2023-01-30T13:10:47.188Z,7.23
2023-01-30T13:13:22.448Z,4.50
2023-01-30T13:15:54.918Z,7.73
2023-01-30T13:18:27.646Z,10.80
2023-01-30T13:21:02.507Z,4.23
2023-01-30T13:23:41.481Z,5.13
2023-01-30T13:26:13.413Z,7.30
2023-01-30T13:28:46.101Z,6.40
2023-01-30T13:31:17.763Z,5.47
2023-01-30T13:33:50.323Z,5.50
2023-01-30T13:36:21.397Z,4.77
2023-01-30T13:38:59.547Z,5.57
2023-01-30T13:41:32.496Z,4.00
2023-01-30T13:44:01.392Z,4.73
2023-01-30T13:46:32.237Z,9.33
2023-01-30T13:49:10.600Z,9.63
2023-01-30T13:51:48.017Z,8.93
2023-01-30T13:54:34.505Z,7.90
2023-01-30T13:57:12.184Z,4.67
2023-01-30T13:59:58.177Z,4.03
2023-01-30T14:02:27.090Z,6.93
2023-01-30T14:04:56.877Z,6.60
2023-01-30T14:07:29.057Z,5.97
2023-01-30T14:10:20.325Z,4.23
2023-01-30T14:12:50.411Z,8.03
2023-01-30T14:15:25.782Z,3.87
2023-01-30T14:18:07.391Z,7.50
2023-01-30T14:20:38.133Z,4.53
2023-01-30T14:23:07.627Z,5.27
2023-01-30T14:25:50.844Z,3.07
2023-01-30T14:28:52.175Z,6.00
2023-01-30T14:31:53.832Z,8.17
2023-01-30T14:35:07.842Z,8.00
2023-01-30T14:38:12.691Z,2.50
2023-01-30T14:40:45.810Z,6.70
2023-01-30T14:43:48.520Z,3.97
2023-01-30T14:46:54.605Z,3.73
2023-01-30T14:49:31.423Z,6.23
2023-01-30T14:51:59.697Z,8.53
2023-01-30T14:54:42.057Z,6.93
2023-01-30T14:57:27.601Z,9.53
2023-01-30T15:00:17.685Z,6.23
2023-01-30T15:02:52.900Z,6.20
2023-01-30T15:05:26.379Z,5.77
2023-01-30T15:07:59.390Z,7.57
2023-01-30T15:10:51.765Z,4.37
2023-01-30T15:13:41.989Z,7.37
2023-01-30T15:16:25.278Z,5.47
2023-01-30T15:19:10.549Z,4.93
2023-01-30T15:21:52.635Z,6.57
2023-01-30T15:24:44.324Z,6.47
2023-01-30T15:27:20.490Z,8.73
2023-01-30T15:30:05.014Z,9.90
2023-01-30T15:32:34.261Z,6.53
2023-01-30T15:35:04.476Z,5.20
2023-01-30T15:37:35.609Z,5.80
2023-01-30T15:40:28.219Z,6.87
2023-01-30T15:43:13.210Z,7.60
2023-01-30T15:45:50.277Z,10.37
2023-01-30T15:48:36.497Z,4.23
2023-01-30T15:51:05.498Z,6.43
2023-01-30T15:53:37.144Z,5.60
2023-01-30T15:56:10.449Z,10.77
2023-01-30T15:58:43.350Z,5.07
2023-01-30T16:01:15.439Z,6.47
2023-01-30T16:03:43.865Z,7.10
2023-01-30T16:06:23.839Z,4.43
2023-01-30T16:09:00.751Z,6.53
2023-01-30T16:11:40.590Z,3.37
2023-01-30T16:14:13.831Z,8.37
2023-01-30T16:16:45.210Z,7.90
2023-01-30T16:19:21.994Z,8.47
2023-01-30T16:21:50.958Z,5.03
2023-01-30T16:24:22.554Z,5.47
2023-01-30T16:26:55.242Z,1.80
2023-01-30T16:29:27.032Z,8.90
2023-01-30T16:31:55.570Z,4.87
2023-01-30T16:34:32.650Z,4.33
2023-01-30T16:37:07.714Z,4.70
2023-01-30T16:39:37.701Z,4.47
2023-01-30T16:42:26.776Z,2.57
2023-01-30T16:45:11.521Z,5.67
2023-01-30T16:47:40.777Z,5.50
2023-01-30T16:50:20.603Z,3.17
2023-01-30T16:52:52.697Z,3.57
2023-01-30T16:55:23.743Z,1.53
2023-01-30T16:57:54.188Z,3.33
2023-01-30T17:00:26.255Z,6.53
2023-01-30T17:02:56.799Z,4.33
2023-01-30T17:05:27.314Z,5.20
2023-01-30T17:07:56.721Z,2.80
2023-01-30T17:10:54.534Z,2.57
2023-01-30T17:13:36.987Z,3.73
2023-01-30T17:16:40.560Z,4.90
2023-01-30T17:19:08.644Z,7.83
2023-01-30T17:21:44.192Z,5.80
2023-01-30T17:24:15.908Z,9.20
2023-01-30T17:26:44.206Z,4.60
2023-01-30T17:29:23.584Z,6.10
2023-01-30T17:32:06.744Z,6.67
2023-01-30T17:34:34.681Z,3.73
2023-01-30T17:37:02.596Z,5.43
2023-01-30T17:39:30.503Z,4.13
2023-01-30T17:41:58.423Z,4.17
2023-01-30T17:44:26.376Z,4.33
2023-01-30T17:46:54.417Z,7.57
2023-01-30T17:49:26.466Z,5.43
2023-01-30T17:51:55.554Z,4.40
2023-01-30T17:54:24.928Z,6.60
2023-01-30T17:56:55.745Z,6.17
2023-01-30T17:59:23.820Z,3.93
2023-01-30T18:01:53.448Z,3.77
2023-01-30T18:04:23.221Z,4.93
2023-01-30T18:06:55.550Z,7.50
2023-01-30T18:09:25.039Z,3.40
2023-01-30T18:11:52.970Z,4.87
2023-01-30T18:14:22.760Z,4.60
2023-01-30T18:16:51.092Z,4.70
2023-01-30T18:19:23.912Z,7.33
2023-01-30T18:21:53.332Z,5.83
2023-01-30T18:24:21.571Z,5.17
2023-01-30T18:26:49.582Z,3.77
2023-01-30T18:29:17.532Z,4.23
2023-01-30T18:31:45.559Z,5.60
2023-01-30T18:34:13.516Z,4.73
2023-01-30T18:36:41.483Z,6.50
2023-01-30T18:39:12.364Z,5.33
2023-01-30T18:41:40.296Z,5.07
2023-01-30T18:44:08.461Z,8.00
2023-01-30T18:46:36.438Z,9.03
2023-01-30T18:49:04.404Z,8.83
2023-01-30T18:51:34.289Z,7.50
2023-01-30T18:54:03.069Z,9.63
2023-01-30T18:56:34.260Z,7.23
2023-01-30T18:59:04.481Z,9.27
2023-01-30T19:01:35.576Z,10.70
2023-01-30T19:04:05.791Z,10.37
2023-01-30T19:06:36.790Z,7.40
2023-01-30T19:09:05.111Z,9.00
2023-01-30T19:11:52.033Z,10.27
2023-01-30T19:14:20.381Z,5.53
2023-01-30T19:16:50.253Z,8.93
2023-01-30T19:19:18.589Z,7.27
2023-01-30T19:21:46.904Z,6.13
2023-01-30T19:24:16.907Z,6.40
2023-01-30T19:26:46.301Z,7.40
2023-01-30T19:29:14.243Z,9.90
2023-01-30T19:31:42.502Z,8.50
2023-01-30T19:34:12.613Z,8.43
2023-01-30T19:36:41.505Z,8.63
2023-01-30T19:39:11.403Z,13.33
2023-01-30T19:41:39.460Z,13.93
2023-01-30T19:44:09.773Z,6.17
2023-01-30T19:46:37.736Z,14.77
2023-01-30T19:49:08.626Z,11.37
2023-01-30T19:51:37.005Z,6.60
2023-01-30T19:54:06.825Z,6.17
2023-01-30T19:56:36.690Z,10.27
2023-01-30T19:59:04.935Z,5.23
2023-01-30T20:01:37.607Z,9.73
2023-01-30T20:04:06.273Z,7.63
2023-01-30T20:06:36.094Z,6.23
2023-01-30T20:09:09.472Z,5.43
2023-01-30T20:11:40.855Z,6.63
2023-01-30T20:14:09.484Z,5.67
2023-01-30T20:16:38.970Z,6.60
2023-01-30T20:19:08.911Z,7.97
2023-01-30T20:21:37.297Z,5.90
2023-01-30T20:24:06.456Z,7.07
2023-01-30T20:26:37.184Z,6.37
2023-01-30T20:29:05.998Z,9.93
2023-01-30T20:31:34.710Z,10.07
2023-01-30T20:34:05.364Z,9.83
2023-01-30T20:36:33.612Z,8.83
2023-01-30T20:39:04.251Z,11.80
2023-01-30T20:41:35.048Z,7.30
2023-01-30T20:44:03.600Z,8.83
2023-01-30T20:46:35.521Z,11.07
2023-01-30T20:49:04.834Z,9.40
2023-01-30T20:51:34.871Z,7.63
2023-01-30T20:54:05.704Z,14.60
2023-01-30T20:56:35.539Z,8.67
2023-01-30T20:59:05.359Z,11.77
2023-01-30T21:01:33.878Z,10.07
2023-01-30T21:04:07.990Z,9.57
2023-01-30T21:06:43.598Z,12.47
2023-01-30T21:09:15.310Z,5.10
2023-01-30T21:11:43.429Z,12.83
2023-01-30T21:14:11.432Z,6.87
2023-01-30T21:16:39.571Z,10.10
2023-01-30T21:19:14.191Z,6.80
2023-01-30T21:21:44.675Z,10.40
2023-01-30T21:24:14.966Z,5.03
2023-01-30T21:26:46.734Z,9.03
2023-01-30T21:29:16.215Z,9.03
2023-01-30T21:31:44.895Z,6.63
2023-01-30T21:34:14.698Z,8.40
2023-01-30T21:36:42.594Z,6.90
2023-01-30T21:39:32.077Z,5.40
2023-01-30T21:42:17.581Z,4.13
2023-01-30T21:44:45.489Z,6.40
2023-01-30T21:47:13.400Z,8.70
2023-01-30T21:49:44.009Z,6.17
2023-01-30T21:52:11.970Z,10.30
2023-01-30T21:54:40.092Z,10.23
2023-01-30T21:57:08.068Z,9.23
2023-01-30T21:59:36.520Z,10.60
2023-01-30T22:02:04.574Z,10.83
2023-01-30T22:04:35.647Z,5.47
2023-01-30T22:07:06.877Z,4.27
2023-01-30T22:09:35.048Z,3.37
2023-01-30T22:12:03.283Z,8.30
2023-01-30T22:14:33.218Z,6.13
2023-01-30T22:17:01.288Z,6.97
2023-01-30T22:19:35.141Z,8.47
2023-01-30T22:22:05.017Z,5.00
2023-01-30T22:24:32.985Z,6.63
2023-01-30T22:27:00.946Z,5.37
2023-01-30T22:29:29.212Z,5.33
2023-01-30T22:31:57.177Z,5.33
2023-01-30T22:34:25.117Z,9.67
2023-01-30T22:36:53.180Z,7.37
2023-01-30T22:39:22.431Z,6.90
2023-01-30T22:41:50.389Z,4.13
2023-01-30T22:44:18.321Z,10.23
2023-01-30T22:46:46.264Z,6.77
2023-01-30T22:49:14.222Z,3.53
2023-01-30T22:51:43.496Z,7.50
2023-01-30T22:54:15.809Z,11.53
2023-01-30T22:56:46.674Z,5.67
2023-01-30T22:59:15.161Z,4.20
2023-01-30T23:01:45.754Z,8.10
2023-01-30T23:04:15.773Z,7.40
2023-01-30T23:06:44.197Z,8.73
2023-01-30T23:09:15.062Z,5.40
2023-01-30T23:12:06.871Z,6.80
2023-01-30T23:14:35.711Z,6.97
2023-01-30T23:17:25.253Z,5.57
2023-01-30T23:19:52.684Z,8.00
2023-01-30T23:22:20.608Z,10.73
2023-01-30T23:24:49.014Z,11.00
2023-01-30T23:27:18.314Z,9.30
2023-01-30T23:29:46.219Z,12.23
2023-01-30T23:32:14.949Z,10.60
2023-01-30T23:34:42.908Z,8.23
2023-01-30T23:37:10.814Z,7.33
2023-01-30T23:39:38.934Z,7.07
2023-01-30T23:42:07.018Z,6.47
2023-01-30T23:44:36.444Z,5.17
2023-01-30T23:47:04.402Z,13.83
2023-01-30T23:49:32.319Z,12.63
2023-01-30T23:52:00.224Z,8.07
2023-01-30T23:54:28.475Z,9.23
2023-01-30T23:56:56.382Z,17.50
2023-01-30T23:59:24.315Z,6.97
